createdAt,value
2018-07-05T00:02:16.320Z,1.30
2018-07-05T00:04:56.006Z,1.47
2018-07-05T00:07:35.605Z,1.57
2018-07-05T00:10:15.219Z,1.53
2018-07-05T00:12:54.970Z,1.67
2018-07-05T00:15:34.722Z,1.87
2018-07-05T00:18:14.453Z,1.65
2018-07-05T00:20:54.300Z,1.37
2018-07-05T00:23:33.872Z,1.70
2018-07-05T00:26:13.498Z,1.70
2018-07-05T00:28:53.126Z,1.57
2018-07-05T00:31:32.767Z,1.52
2018-07-05T00:34:12.433Z,1.47
2018-07-05T00:36:52.211Z,1.42
2018-07-05T00:39:31.948Z,1.65
2018-07-05T00:42:11.586Z,1.60
2018-07-05T00:44:45.159Z,1.52
2018-07-05T00:47:24.920Z,1.70
2018-07-05T00:50:04.650Z,1.30
2018-07-05T00:52:44.251Z,1.25
2018-07-05T00:55:23.686Z,1.92
2018-07-05T00:58:03.391Z,1.65
2018-07-05T01:00:43.082Z,1.82
2018-07-05T01:03:22.877Z,1.62
2018-07-05T01:06:02.722Z,1.70
2018-07-05T01:08:42.941Z,1.50
2018-07-05T01:11:22.663Z,1.37
2018-07-05T01:14:02.345Z,1.87
2018-07-05T01:16:42.125Z,1.70
2018-07-05T01:19:22.005Z,1.47
2018-07-05T01:22:01.780Z,1.80
2018-07-05T01:24:41.660Z,1.32
2018-07-05T01:27:21.312Z,1.60
2018-07-05T01:30:00.937Z,1.57
2018-07-05T01:32:40.734Z,1.67
2018-07-05T01:35:20.444Z,1.63
2018-07-05T01:38:00.179Z,1.73
2018-07-05T01:40:39.939Z,1.70
2018-07-05T01:43:19.591Z,1.30
2018-07-05T01:45:59.295Z,1.47
2018-07-05T01:48:38.863Z,1.70
2018-07-05T01:51:18.416Z,1.73
2018-07-05T01:53:57.974Z,1.40
2018-07-05T01:56:37.531Z,1.50
2018-07-05T01:59:17.213Z,1.50
2018-07-05T02:01:56.972Z,2.00
2018-07-05T02:04:36.559Z,1.50
2018-07-05T02:07:16.303Z,1.53
2018-07-05T02:09:57.045Z,1.60
2018-07-05T02:12:36.567Z,2.17
2018-07-05T02:15:16.195Z,1.60
2018-07-05T02:17:55.892Z,1.60
2018-07-05T02:20:35.503Z,1.60
2018-07-05T02:23:15.288Z,1.80
2018-07-05T02:25:54.903Z,1.77
2018-07-05T02:28:34.451Z,1.57
2018-07-05T02:31:14.043Z,1.70
2018-07-05T02:33:58.375Z,1.60
2018-07-05T02:36:38.062Z,1.33
2018-07-05T02:39:23.211Z,1.67
2018-07-05T02:42:02.878Z,1.50
2018-07-05T02:44:42.585Z,1.90
2018-07-05T02:47:22.426Z,1.60
2018-07-05T02:50:02.112Z,1.80
2018-07-05T02:52:41.790Z,1.73
2018-07-05T02:55:21.417Z,1.90
2018-07-05T02:58:01.089Z,1.47
2018-07-05T03:00:44.306Z,1.73
2018-07-05T03:03:25.127Z,1.83
2018-07-05T03:06:05.362Z,1.73
2018-07-05T03:08:45.014Z,1.83
2018-07-05T03:11:24.666Z,2.20
2018-07-05T03:14:04.335Z,1.70
2018-07-05T03:16:43.908Z,2.00
2018-07-05T03:19:23.537Z,1.80
2018-07-05T03:22:03.495Z,2.03
2018-07-05T03:24:43.129Z,2.20
2018-07-05T03:27:22.799Z,1.77
2018-07-05T03:30:02.416Z,2.10
2018-07-05T03:32:42.082Z,1.43
2018-07-05T03:35:21.661Z,1.90
2018-07-05T03:38:01.355Z,2.13
2018-07-05T03:40:41.093Z,1.60
2018-07-05T03:43:20.825Z,1.83
2018-07-05T03:46:00.512Z,1.87
2018-07-05T03:48:40.068Z,1.80
2018-07-05T03:51:19.727Z,1.80
2018-07-05T03:53:59.229Z,1.70
2018-07-05T03:56:38.862Z,1.70
2018-07-05T03:59:18.719Z,2.10
2018-07-05T04:01:58.367Z,1.90
2018-07-05T04:04:38.092Z,2.02
2018-07-05T04:07:17.840Z,2.10
2018-07-05T04:09:57.536Z,2.10
2018-07-05T04:12:37.140Z,2.00
2018-07-05T04:15:17.863Z,1.62
2018-07-05T04:17:57.501Z,2.08
2018-07-05T04:20:37.154Z,1.80
2018-07-05T04:23:16.729Z,1.70
2018-07-05T04:25:56.391Z,2.20
2018-07-05T04:28:36.056Z,1.75
2018-07-05T04:31:15.743Z,1.90
2018-07-05T04:33:55.366Z,1.57
2018-07-05T04:36:34.952Z,2.10
2018-07-05T04:39:14.579Z,1.70
2018-07-05T04:41:54.283Z,1.65
2018-07-05T04:44:33.930Z,1.92
2018-07-05T04:47:14.990Z,1.95
2018-07-05T04:49:54.628Z,2.00
2018-07-05T04:52:34.279Z,1.70
2018-07-05T04:55:14.843Z,1.75
2018-07-05T04:57:54.336Z,1.65
2018-07-05T05:00:33.920Z,1.87
2018-07-05T05:03:13.555Z,2.40
2018-07-05T05:05:53.264Z,2.10
2018-07-05T05:08:33.007Z,2.27
2018-07-05T05:11:12.733Z,2.22
2018-07-05T05:13:52.312Z,1.80
2018-07-05T05:16:32.052Z,1.90
2018-07-05T05:19:11.724Z,1.85
2018-07-05T05:21:51.321Z,1.65
2018-07-05T05:24:31.181Z,2.05
2018-07-05T05:27:10.854Z,1.90
2018-07-05T05:29:50.607Z,2.17
2018-07-05T05:32:30.395Z,1.67
2018-07-05T05:35:10.330Z,2.20
2018-07-05T05:37:49.951Z,2.30
2018-07-05T05:40:29.567Z,1.90
2018-07-05T05:43:09.200Z,1.90
2018-07-05T05:45:48.987Z,2.52
2018-07-05T05:48:28.630Z,2.08
2018-07-05T05:51:08.383Z,1.90
2018-07-05T05:53:48.221Z,1.90
2018-07-05T05:56:27.944Z,1.85
2018-07-05T05:59:07.747Z,1.60
2018-07-05T06:01:47.666Z,2.77
2018-07-05T06:04:27.531Z,1.92
2018-07-05T06:07:07.261Z,1.40
2018-07-05T06:09:47.083Z,1.65
2018-07-05T06:12:26.712Z,1.30
2018-07-05T06:15:06.444Z,1.60
2018-07-05T06:17:46.152Z,1.80
2018-07-05T06:20:25.979Z,1.87
2018-07-05T06:23:05.849Z,1.70
2018-07-05T06:25:45.742Z,1.55
2018-07-05T06:28:25.443Z,1.65
2018-07-05T06:31:05.171Z,1.30
2018-07-05T06:33:44.764Z,1.37
2018-07-05T06:36:24.377Z,1.20
2018-07-05T06:39:05.056Z,1.52
2018-07-05T06:41:44.675Z,1.15
2018-07-05T06:44:24.308Z,1.57
2018-07-05T06:47:03.938Z,1.20
2018-07-05T06:49:43.624Z,1.27
2018-07-05T06:52:17.392Z,1.52
2018-07-05T06:54:57.151Z,1.57
2018-07-05T06:57:36.870Z,1.42
2018-07-05T07:00:16.523Z,1.00
2018-07-05T07:02:56.237Z,1.37
2018-07-05T07:05:35.926Z,1.05
2018-07-05T07:08:15.563Z,1.30
2018-07-05T07:10:55.302Z,1.10
2018-07-05T07:13:35.116Z,1.00
2018-07-05T07:16:14.882Z,1.20
2018-07-05T07:18:54.644Z,0.95
2018-07-05T07:21:34.595Z,1.15
2018-07-05T07:24:14.460Z,1.00
2018-07-05T07:26:54.065Z,1.00
2018-07-05T07:29:33.815Z,0.82
2018-07-05T07:32:13.476Z,1.05
2018-07-05T07:34:53.274Z,1.00
2018-07-05T07:37:32.949Z,0.90
2018-07-05T07:40:12.700Z,0.93
2018-07-05T07:42:39.955Z,0.95
2018-07-05T07:45:07.254Z,1.20
2018-07-05T07:47:34.519Z,0.80
2018-07-05T07:50:01.815Z,0.93
2018-07-05T07:52:29.084Z,1.27
2018-07-05T07:54:56.476Z,0.80
2018-07-05T07:57:23.788Z,1.32
2018-07-05T07:59:51.073Z,1.05
2018-07-05T08:02:18.347Z,1.12
2018-07-05T08:04:45.671Z,0.90
2018-07-05T08:07:12.991Z,1.15
2018-07-05T08:09:40.257Z,1.05
2018-07-05T08:12:07.558Z,0.90
2018-07-05T08:14:34.821Z,0.80
2018-07-05T08:17:02.106Z,1.20
2018-07-05T08:19:29.396Z,1.05
2018-07-05T08:21:56.711Z,1.00
2018-07-05T08:24:23.984Z,0.85
2018-07-05T08:26:51.373Z,0.80
2018-07-05T08:29:18.648Z,0.90
2018-07-05T08:31:45.946Z,0.80
2018-07-05T08:34:13.241Z,1.05
2018-07-05T08:36:40.544Z,1.05
2018-07-05T08:39:07.848Z,1.12
2018-07-05T08:41:35.160Z,0.98
2018-07-05T08:44:02.446Z,0.95
2018-07-05T08:46:29.723Z,0.80
2018-07-05T08:48:57.017Z,1.02
2018-07-05T08:51:24.298Z,0.70
2018-07-05T08:53:51.558Z,0.85
2018-07-05T08:56:18.830Z,0.80
2018-07-05T08:58:46.088Z,0.70
2018-07-05T09:01:13.367Z,0.78
2018-07-05T09:03:40.631Z,0.93
2018-07-05T09:06:07.939Z,1.00
2018-07-05T09:08:35.223Z,1.10
2018-07-05T09:11:02.510Z,0.70
2018-07-05T09:13:29.798Z,1.05
2018-07-05T09:15:57.098Z,1.02
2018-07-05T09:18:24.371Z,0.57
2018-07-05T09:20:51.658Z,0.85
2018-07-05T09:23:18.993Z,0.80
2018-07-05T09:25:46.340Z,0.85
2018-07-05T09:28:13.613Z,0.70
2018-07-05T09:30:40.880Z,0.95
2018-07-05T09:33:08.148Z,0.90
2018-07-05T09:35:35.477Z,0.78
2018-07-05T09:38:02.741Z,0.90
2018-07-05T09:40:30.285Z,1.00
2018-07-05T09:42:57.575Z,0.95
2018-07-05T09:45:24.861Z,0.98
2018-07-05T09:47:52.148Z,0.85
2018-07-05T09:50:19.414Z,0.98
2018-07-05T09:52:46.751Z,0.80
2018-07-05T09:55:13.990Z,0.90
2018-07-05T09:57:41.283Z,0.65
2018-07-05T10:00:11.075Z,0.88
2018-07-05T10:02:39.062Z,1.17
2018-07-05T10:05:06.472Z,0.90
2018-07-05T10:07:34.080Z,1.10
2018-07-05T10:10:01.829Z,0.98
2018-07-05T10:12:29.119Z,0.85
2018-07-05T10:14:56.393Z,1.00
2018-07-05T10:17:23.673Z,0.72
2018-07-05T10:19:50.982Z,0.95
2018-07-05T10:22:18.300Z,1.12
2018-07-05T10:24:45.610Z,0.80
2018-07-05T10:27:12.913Z,0.80
2018-07-05T10:29:52.625Z,1.07
2018-07-05T10:32:32.414Z,0.65
2018-07-05T10:34:59.733Z,0.95
2018-07-05T10:37:27.017Z,1.12
2018-07-05T10:40:06.735Z,0.90
2018-07-05T10:42:46.216Z,0.93
2018-07-05T10:45:25.846Z,1.10
2018-07-05T10:47:59.953Z,0.88
2018-07-05T10:50:39.755Z,0.85
2018-07-05T10:53:19.523Z,1.02
2018-07-05T10:56:00.252Z,1.12
2018-07-05T10:58:39.792Z,1.12
2018-07-05T11:01:19.642Z,1.12
2018-07-05T11:03:59.269Z,0.93
2018-07-05T11:06:39.019Z,0.80
2018-07-05T11:09:18.772Z,1.40
2018-07-05T11:11:58.572Z,1.20
2018-07-05T11:14:38.223Z,0.95
2018-07-05T11:17:17.893Z,1.25
2018-07-05T11:19:57.604Z,0.90
2018-07-05T11:22:37.219Z,0.85
2018-07-05T11:25:16.874Z,1.00
2018-07-05T11:27:56.711Z,1.22
2018-07-05T11:30:36.443Z,0.98
2018-07-05T11:33:16.126Z,0.95
2018-07-05T11:35:55.810Z,1.07
2018-07-05T11:38:35.413Z,0.70
2018-07-05T11:41:15.033Z,1.02
2018-07-05T11:43:54.692Z,1.50
2018-07-05T11:46:34.359Z,1.10
2018-07-05T11:49:13.996Z,0.95
2018-07-05T11:51:53.630Z,1.02
2018-07-05T11:54:33.270Z,1.40
2018-07-05T11:57:12.993Z,1.17
2018-07-05T11:59:52.761Z,1.45
2018-07-05T12:02:32.637Z,1.30
2018-07-05T12:05:12.382Z,1.20
2018-07-05T12:07:52.116Z,1.40
2018-07-05T12:10:31.872Z,1.00
2018-07-05T12:13:11.692Z,1.12
2018-07-05T12:15:51.690Z,1.30
2018-07-05T12:18:31.462Z,1.32
2018-07-05T12:21:11.126Z,1.27
2018-07-05T12:23:51.028Z,1.35
2018-07-05T12:26:24.739Z,1.17
2018-07-05T12:29:04.312Z,1.52
2018-07-05T12:31:43.922Z,1.30
2018-07-05T12:34:23.524Z,1.25
2018-07-05T12:37:03.208Z,1.30
2018-07-05T12:39:42.875Z,1.10
2018-07-05T12:42:22.693Z,1.50
2018-07-05T12:45:02.310Z,1.10
2018-07-05T12:47:41.891Z,1.22
2018-07-05T12:50:22.452Z,1.30
2018-07-05T12:53:02.131Z,1.42
2018-07-05T12:55:41.881Z,1.02
2018-07-05T12:58:21.551Z,0.90
2018-07-05T13:01:01.191Z,1.20
2018-07-05T13:03:40.877Z,1.17
2018-07-05T13:06:20.562Z,1.45
2018-07-05T13:09:00.106Z,1.15
2018-07-05T13:11:39.770Z,1.17
2018-07-05T13:14:19.455Z,1.00
2018-07-05T13:16:53.221Z,1.50
2018-07-05T13:19:33.762Z,1.10
2018-07-05T13:22:13.342Z,1.45
2018-07-05T13:24:52.886Z,1.20
2018-07-05T13:27:32.503Z,1.17
2018-07-05T13:30:12.214Z,1.02
2018-07-05T13:32:51.811Z,1.20
2018-07-05T13:35:31.504Z,1.60
2018-07-05T13:38:11.073Z,1.37
2018-07-05T13:40:50.702Z,1.52
2018-07-05T13:43:30.265Z,1.67
2018-07-05T13:46:09.967Z,1.35
2018-07-05T13:48:49.667Z,1.22
2018-07-05T13:51:29.211Z,1.17
2018-07-05T13:54:08.849Z,1.50
2018-07-05T13:56:48.454Z,1.50
2018-07-05T13:59:28.104Z,1.17
2018-07-05T14:02:07.777Z,1.10
2018-07-05T14:04:47.427Z,1.60
2018-07-05T14:07:27.132Z,1.25
2018-07-05T14:10:06.970Z,1.20
2018-07-05T14:12:46.608Z,1.60
2018-07-05T14:15:26.377Z,1.45
2018-07-05T14:18:05.962Z,1.42
2018-07-05T14:20:45.458Z,1.42
2018-07-05T14:23:25.102Z,1.50
2018-07-05T14:26:04.721Z,1.40
2018-07-05T14:28:44.344Z,1.87
2018-07-05T14:31:24.075Z,1.75
2018-07-05T14:34:03.579Z,1.77
2018-07-05T14:36:43.163Z,1.00
2018-07-05T14:39:22.802Z,1.27
2018-07-05T14:42:02.387Z,1.75
2018-07-05T14:44:42.153Z,1.40
2018-07-05T14:47:21.867Z,1.50
2018-07-05T14:50:01.562Z,1.50
2018-07-05T14:52:41.308Z,1.30
2018-07-05T14:55:21.230Z,1.25
2018-07-05T14:58:01.009Z,1.60
2018-07-05T15:00:40.636Z,1.40
2018-07-05T15:03:20.294Z,1.67
2018-07-05T15:05:59.903Z,1.50
2018-07-05T15:08:39.592Z,1.57
2018-07-05T15:11:19.322Z,1.20
2018-07-05T15:13:59.090Z,1.77
2018-07-05T15:16:38.715Z,1.37
2018-07-05T15:19:18.478Z,1.10
2018-07-05T15:21:58.203Z,1.35
2018-07-05T15:24:38.190Z,1.40
2018-07-05T15:27:17.963Z,1.60
2018-07-05T15:29:57.610Z,1.37
2018-07-05T15:32:37.175Z,1.42
2018-07-05T15:35:16.816Z,1.47
2018-07-05T15:37:56.374Z,1.10
2018-07-05T15:40:36.026Z,1.30
2018-07-05T15:43:15.588Z,1.25
2018-07-05T15:45:55.281Z,1.00
2018-07-05T15:48:34.870Z,1.42
2018-07-05T15:51:14.371Z,1.52
2018-07-05T15:53:54.074Z,1.60
2018-07-05T15:57:36.571Z,1.30
2018-07-05T16:00:16.046Z,1.20
2018-07-05T16:02:55.634Z,1.32
2018-07-05T16:05:35.258Z,1.20
2018-07-05T16:08:14.874Z,1.10
2018-07-05T16:10:54.611Z,1.17
2018-07-05T16:13:34.339Z,1.45
2018-07-05T16:16:14.038Z,1.20
2018-07-05T16:18:53.707Z,1.30
2018-07-05T16:21:33.447Z,1.07
2018-07-05T16:24:13.095Z,1.80
2018-07-05T16:26:52.737Z,1.20
2018-07-05T16:29:32.512Z,1.27
2018-07-05T16:32:12.006Z,1.10
2018-07-05T16:34:51.787Z,1.07
2018-07-05T16:37:31.605Z,1.27
2018-07-05T16:40:11.350Z,1.20
2018-07-05T16:42:51.018Z,1.20
2018-07-05T16:45:30.756Z,0.95
2018-07-05T16:48:10.528Z,1.20
2018-07-05T16:50:50.315Z,0.93
2018-07-05T16:53:29.910Z,0.85
2018-07-05T16:56:09.475Z,0.93
2018-07-05T16:58:49.259Z,1.05
2018-07-05T17:01:28.974Z,0.95
2018-07-05T17:04:08.908Z,0.78
2018-07-05T17:06:48.761Z,0.90
2018-07-05T17:09:28.406Z,0.82
2018-07-05T17:12:08.052Z,0.50
2018-07-05T17:14:47.751Z,0.62
2018-07-05T17:17:27.533Z,0.78
2018-07-05T17:20:07.192Z,0.85
2018-07-05T17:22:40.914Z,0.80
2018-07-05T17:25:20.714Z,0.80
2018-07-05T17:28:00.971Z,0.65
2018-07-05T17:30:40.660Z,0.70
2018-07-05T17:33:20.400Z,0.70
2018-07-05T17:36:00.251Z,0.40
2018-07-05T17:38:39.925Z,0.70
2018-07-05T17:41:19.842Z,0.60
2018-07-05T17:43:59.477Z,0.60
2018-07-05T17:46:39.201Z,0.80
2018-07-05T17:49:12.794Z,0.70
2018-07-05T17:51:52.357Z,0.65
2018-07-05T17:54:25.961Z,0.70
2018-07-05T17:57:05.565Z,0.80
2018-07-05T17:59:45.177Z,0.60
2018-07-05T18:02:24.890Z,0.60
2018-07-05T18:05:04.654Z,0.55
2018-07-05T18:07:44.495Z,0.60
2018-07-05T18:10:24.224Z,0.60
2018-07-05T18:13:03.921Z,0.50
2018-07-05T18:15:43.674Z,0.50
2018-07-05T18:18:23.306Z,0.68
2018-07-05T18:21:02.974Z,0.50
2018-07-05T18:23:42.748Z,0.70
2018-07-05T18:26:22.518Z,0.55
2018-07-05T18:29:02.139Z,0.40
2018-07-05T18:31:41.960Z,0.50
2018-07-05T18:34:21.599Z,0.60
2018-07-05T18:37:01.132Z,0.60
2018-07-05T18:39:40.726Z,0.75
2018-07-05T18:42:14.262Z,0.50
2018-07-05T18:44:54.012Z,0.82
2018-07-05T18:47:33.668Z,0.72
2018-07-05T18:50:13.538Z,0.50
2018-07-05T18:52:53.162Z,0.70
2018-07-05T18:55:33.035Z,0.70
2018-07-05T18:58:12.730Z,0.60
2018-07-05T19:00:52.559Z,0.42
2018-07-05T19:03:32.362Z,0.70
2018-07-05T19:06:12.108Z,0.60
2018-07-05T19:08:51.815Z,0.65
2018-07-05T19:11:31.549Z,0.45
2018-07-05T19:14:11.271Z,0.60
2018-07-05T19:16:50.944Z,0.60
2018-07-05T19:19:30.601Z,0.90
2018-07-05T19:22:10.195Z,0.72
2018-07-05T19:24:50.014Z,0.65
2018-07-05T19:27:29.828Z,0.55
2018-07-05T19:30:09.747Z,0.90
2018-07-05T19:32:49.546Z,0.68
2018-07-05T19:35:29.255Z,0.88
2018-07-05T19:38:09.995Z,1.10
2018-07-05T19:40:49.707Z,0.65
2018-07-05T19:43:30.092Z,0.80
2018-07-05T19:46:09.698Z,0.90
2018-07-05T19:48:49.351Z,0.62
2018-07-05T19:51:29.248Z,0.70
2018-07-05T19:54:08.865Z,0.80
2018-07-05T19:56:48.628Z,0.98
2018-07-05T19:59:29.015Z,1.10
2018-07-05T20:02:08.717Z,0.93
2018-07-05T20:04:48.350Z,1.00
2018-07-05T20:07:28.138Z,0.70
2018-07-05T20:10:07.681Z,0.60
2018-07-05T20:12:47.246Z,0.72
2018-07-05T20:15:26.945Z,0.85
2018-07-05T20:18:06.520Z,0.95
2018-07-05T20:20:46.200Z,0.93
2018-07-05T20:23:26.053Z,1.00
2018-07-05T20:26:05.828Z,1.02
2018-07-05T20:28:45.594Z,0.60
2018-07-05T20:31:25.232Z,0.78
2018-07-05T20:34:04.948Z,0.68
2018-07-05T20:36:44.608Z,0.70
2018-07-05T20:39:24.318Z,1.17
2018-07-05T20:42:04.325Z,0.82
2018-07-05T20:44:43.915Z,1.00
2018-07-05T20:47:23.523Z,0.85
2018-07-05T20:50:03.169Z,1.02
2018-07-05T20:52:42.671Z,1.00
2018-07-05T20:55:22.313Z,0.78
2018-07-05T20:58:02.061Z,1.12
2018-07-05T21:00:41.867Z,0.90
2018-07-05T21:03:21.432Z,1.00
2018-07-05T21:06:00.994Z,1.00
2018-07-05T21:08:40.573Z,0.70
2018-07-05T21:11:20.200Z,1.35
2018-07-05T21:13:59.987Z,1.22
2018-07-05T21:16:40.824Z,1.47
2018-07-05T21:19:20.415Z,1.25
2018-07-05T21:22:00.223Z,1.00
2018-07-05T21:24:33.856Z,1.42
2018-07-05T21:27:13.514Z,1.12
2018-07-05T21:29:53.146Z,1.05
2018-07-05T21:32:32.973Z,1.20
2018-07-05T21:35:12.654Z,1.17
2018-07-05T21:37:52.315Z,1.30
2018-07-05T21:40:32.963Z,1.40
2018-07-05T21:43:12.567Z,1.02
2018-07-05T21:45:52.225Z,1.35
2018-07-05T21:48:31.874Z,1.60
2018-07-05T21:51:11.714Z,1.67
2018-07-05T21:53:51.297Z,0.93
2018-07-05T21:59:54.013Z,1.50
2018-07-05T22:02:33.658Z,1.62
2018-07-05T22:05:13.800Z,1.52
2018-07-05T22:07:54.798Z,1.27
2018-07-05T22:10:34.503Z,1.22
2018-07-05T22:13:15.177Z,1.05
2018-07-05T22:15:54.878Z,1.15
2018-07-05T22:18:39.996Z,1.20
2018-07-05T22:21:20.297Z,1.00
2018-07-05T22:24:05.618Z,1.10
2018-07-05T22:26:46.640Z,1.25
2018-07-05T22:29:31.946Z,1.17
2018-07-05T22:32:11.753Z,1.22
2018-07-05T22:34:51.460Z,1.30
2018-07-05T22:37:31.255Z,1.57
2018-07-05T22:40:11.075Z,1.22
2018-07-05T22:42:50.861Z,1.32
2018-07-05T22:45:30.538Z,1.25
2018-07-05T22:48:10.203Z,1.42
2018-07-05T22:50:49.831Z,1.00
2018-07-05T22:53:29.497Z,0.95
2018-07-05T22:56:09.122Z,1.17
2018-07-05T22:58:48.761Z,1.50
2018-07-05T23:01:28.523Z,1.27
2018-07-05T23:04:08.153Z,1.32
2018-07-05T23:06:47.864Z,1.20
2018-07-05T23:09:21.486Z,1.30
2018-07-05T23:12:01.169Z,1.02
2018-07-05T23:14:40.787Z,1.27
2018-07-05T23:17:20.559Z,1.20
2018-07-05T23:20:00.286Z,1.20
2018-07-05T23:22:40.072Z,1.40
2018-07-05T23:25:19.676Z,1.13
2018-07-05T23:27:59.339Z,1.50
2018-07-05T23:30:39.104Z,1.40
2018-07-05T23:33:18.696Z,1.47
2018-07-05T23:35:58.338Z,1.67
2018-07-05T23:38:38.185Z,1.00
2018-07-05T23:41:17.762Z,1.10
2018-07-05T23:43:57.267Z,0.97
2018-07-05T23:46:37.194Z,1.03
2018-07-05T23:49:16.725Z,1.00
2018-07-05T23:51:56.434Z,1.20
2018-07-05T23:54:36.111Z,1.00
2018-07-05T23:57:15.795Z,1.30
2018-07-05T23:59:55.447Z,1.07
